Pagrindinis puslapis
METAR-TAF:

METAR-TAF

Oro uostai :

Malacca, Malaizija

platuma: 02-16N, ilguma: 102-15E, Aukštis: 11 m

Dabartinis oras

Ataskaita buvo paskelbta 1 valandą ir 22 minutes, ne 21:00 UTC
Vėjas 4 kt iš Šiaurės Rytų, svyruoja nuo Šiaurės ir Rytų
Temperatūra 26°C
Drėgmė 89%
Slėgis 1008 hPa
Matomumas 10 km arba daugiau
Mažai debesys ne aukštis 2800 ft

METAR: WMKM 292100Z 05004KT 350V100 9999 FEW028 26/24 Q1008

Laikas: 06:22 (22:22 UTC)

Prognozė

Ataskaita buvo paskelbta 1 valandą ir 34 minutes, ne 20:48 UTC
Prognozė galioja nuo 29 metu 20 UTC su 30 metu 18 UTC
Vėjas 5 kt iš Šiaurės Vakarų
Matomumas 10 km arba daugiau
Mažai debesys ne aukštis 1800 ft
Laikinai
nuo 29 metu 21 UTC su 30 metu 01 UTC
Matomumas: 5000 m
Mažai debesys ne aukštis 1000 ft
Mažai debesys ne aukštis 1700 ft, Liūtiniai kamuoliniai debesys.
perkūnija, lietus

TAF: WMKM 292048Z 2920/3018 32005KT 9999 FEW018 TEMPO 2921/3001 5000 TSRA FEW010 FEW017CB

Orai ataskaitas ir orų prognozės (METAR, TAF).

turimą stotys yra geltonos ir raudonos taškus žemėlapyje.

Perkelti pele per norėdami pamatyti stoties vardą.

Tada spustelėkite, norėdami matyti oro stebėjimo ir prognozės.

Norėdami pakeisti žemėlapį: spustelėkite ant žalios mygtukų su juodo kryžiaus žemyn,; žalią mygtuką su brūkšneliu, jei norite nutolinti; arba žalių rodyklių gretimoms žemėlapius.


METAR-TAF: